Latest Weather Observations for The Monument

IDQ60801

Issued at 7:32 pm EST Friday 16 November 2018 (issued every 10 minutes, with the page automatically refreshed every 10 minutes)

About weather observations | Map of weather stations | Latest weather observations for QLD | Other Formats
Station Details ID: 037034 Name: THE MONUMENT AIRPORT Lat: -21.81 Lon: 139.93 Height: 288.4 m
Data from the previous 72 hours. | See also: Recent months at The Monument
Date/Time
EST
Temp
°C
App
Temp
°C
Dew
Point
°C
Rel
Hum
%
Delta-T
°C
Wind Press
QNH
hPa
Press
MSL
hPa
Rain since
9am
mm
Dir  Spd
km/h
Gust
km/h
Spd
kts
Gust
kts
16/07:30pm 34.3 32.1 9.5 22 14.4 ESE 11 13 6 7 1010.4 1008.4 0.0
16/07:00pm 35.6 32.6 9.2 20 15.3 SE 15 20 8 11 1010.2 1008.1 0.0
16/06:30pm 36.8 34.2 7.8 17 16.5 SSE 11 15 6 8 1009.8 1007.7 0.0
16/06:00pm 37.3 34.6 7.3 16 17.0 S 11 17 6 9 1009.6 1007.5 0.0
16/05:30pm 38.1 33.8 7.9 16 17.4 S 20 30 11 16 1009.3 1007.3 0.0
16/05:00pm 38.9 36.5 8.5 16 17.7 ESE 11 19 6 10 1009.1 1007.1 0.0
16/04:30pm 38.6 36.5 8.3 16 17.6 NE 9 17 5 9 1009.1 1007.1 0.0
16/04:00pm 38.0 35.4 7.8 16 17.3 S 11 13 6 7 1009.3 1007.3 0.0
16/03:30pm 37.7 35.3 8.5 17 16.9 E 11 19 6 10 1009.8 1007.7 0.0
16/03:00pm 37.6 35.5 8.4 17 16.9 SSW 9 17 5 9 1010.2 1008.1 0.0
16/02:30pm 38.0 36.6 8.7 17 17.0 NNW 6 13 3 7 1010.6 1008.6 0.0
16/02:00pm 38.6 37.1 9.2 17 17.3 SSW 7 15 4 8 1010.9 1008.9 0.0
16/01:30pm 37.4 34.1 8.2 17 16.8 NNE 15 24 8 13 1011.5 1009.5 0.0
16/01:00pm 38.3 35.6 9.0 17 17.1 NW 13 20 7 11 1012.0 1010.0 0.0
16/12:30pm 37.5 34.9 9.2 18 16.5 NW 13 20 7 11 1012.4 1010.4 0.0
16/12:00pm 38.4 36.7 9.9 18 16.9 NNW 9 22 5 12 1013.1 1011.0 0.0
16/11:30am 37.6 35.7 9.2 18 16.6 NNE 9 20 5 11 1013.5 1011.4 0.0
16/11:00am 36.4 33.2 8.3 18 16.1 NNE 15 26 8 14 1014.1 1012.1 0.0
16/10:30am 36.5 33.5 9.2 19 15.9 NNE 15 28 8 15 1014.6 1012.6 0.0
16/10:00am 35.9 32.9 9.4 20 15.4 NE 15 22 8 12 1014.7 1012.7 0.0
16/09:30am 34.7 32.3 9.9 22 14.5 ENE 13 22 7 12 1014.9 1012.9 0.0
16/09:00am 32.1 30.0 8.4 23 13.3 ESE 9 13 5 7 1014.9 1012.9 0.0
16/08:30am 30.5 28.0 8.3 25 12.4 SE 11 17 6 9 1015.0 1013.0 0.0
16/08:00am 29.8 26.9 8.2 26 12.0 SSE 13 20 7 11 1014.8 1012.8 0.0
16/07:30am 27.8 26.2 8.6 30 10.6 S 7 13 4 7 1014.5 1012.5 0.0
16/07:00am 24.4 24.3 9.6 39 8.2 CALM 0 0 0 0 1014.4 1012.4 0.0
16/06:30am 24.6 22.8 8.1 35 8.9 SSW 7 9 4 5 1014.1 1012.1 0.0
16/06:00am 24.3 22.6 8.3 36 8.6 SSW 7 9 4 5 1013.6 1011.6 0.0
16/05:30am 24.6 22.9 7.7 34 9.1 SSW 6 9 3 5 1013.4 1011.3 0.0
16/05:00am 25.1 22.9 7.7 33 9.3 SW 9 11 5 6 1012.8 1010.8 0.0
16/04:30am 26.2 24.3 7.7 31 10.0 WSW 7 7 4 4 1012.6 1010.6 0.0
16/04:00am 26.6 24.2 7.1 29 10.5 S 9 11 5 6 1012.7 1010.7 0.0
16/03:30am 27.6 24.8 6.9 27 11.1 S 11 17 6 9 1012.6 1010.6 0.0
16/03:00am 28.5 25.1 7.7 27 11.4 SSW 15 20 8 11 1012.4 1010.4 0.0
16/02:30am 28.8 25.6 8.5 28 11.3 SSW 15 19 8 10 1012.5 1010.5 0.0
16/02:00am 29.6 25.8 9.2 28 11.5 SSW 19 24 10 13 1012.5 1010.5 0.0
16/01:30am 29.4 27.6 11.0 32 10.7 SSW 11 15 6 8 1012.8 1010.8 0.0
16/01:00am 28.6 27.8 12.9 38 9.4 W 9 11 5 6 1012.9 1010.9 0.0
16/12:30am 28.2 28.0 12.9 38 9.1 SSW 6 9 3 5 1013.5 1011.4 0.0
16/12:00am 28.0 27.3 12.0 37 9.4 SE 7 9 4 5 1013.6 1011.6 0.0
 
Date/Time
EST
Temp
°C
App
Temp
°C
Dew
Point
°C
Rel
Hum
%
Delta-T
°C
Wind Press
QNH
hPa
Press
MSL
hPa
Rain since
9am
mm
Dir  Spd
km/h
Gust
km/h
Spd
kts
Gust
kts
15/11:30pm 27.6 26.8 11.6 37 9.3 SE 7 13 4 7 1013.8 1011.8 0.0
15/11:00pm 29.5 27.9 11.5 33 10.5 S 11 11 6 6 1013.8 1011.8 0.0
15/10:30pm 29.7 28.9 11.7 33 10.6 SSW 7 11 4 6 1013.9 1011.9 0.0
15/10:00pm 30.2 29.1 10.7 30 11.3 NNE 7 9 4 5 1013.6 1011.6 0.0
15/09:30pm 31.8 30.3 10.5 27 12.4 NE 9 13 5 7 1013.5 1011.4 0.0
15/09:00pm 32.9 30.6 10.3 25 13.2 ENE 13 15 7 8 1013.2 1011.1 0.0
15/08:30pm 32.8 31.2 10.2 25 13.1 ESE 9 11 5 6 1012.8 1010.8 0.0
15/08:00pm 33.7 32.2 9.0 22 14.2 ESE 7 9 4 5 1012.6 1010.6 0.0
15/07:30pm 34.8 32.2 9.3 21 14.7 ESE 13 15 7 8 1012.4 1010.4 0.0
15/07:00pm 35.4 32.5 8.3 19 15.5 ESE 13 20 7 11 1011.9 1009.9 0.0
15/06:30pm 36.2 32.7 8.9 19 15.8 SE 17 20 9 11 1011.7 1009.7 0.0
15/06:00pm 37.3 35.2 8.2 17 16.8 E 9 17 5 9 1011.4 1009.4 0.0
15/05:30pm 37.1 35.1 8.8 18 16.4 S 9 17 5 9 1011.3 1009.3 0.0
15/05:00pm 36.9 35.5 8.7 18 16.3 SSE 6 13 3 7 1011.4 1009.4 0.0
15/04:30pm 37.2 35.8 8.9 18 16.4 ESE 6 9 3 5 1011.5 1009.5 0.0
15/04:00pm 36.9 34.9 8.7 18 16.3 ESE 9 13 5 7 1011.6 1009.6 0.0
15/03:30pm 36.8 35.7 8.6 18 16.3 NNE 4 20 2 11 1011.7 1009.7 0.0
15/03:00pm 36.9 33.8 8.7 18 16.3 NE 15 22 8 12 1012.0 1010.0 0.0
15/02:30pm 37.2 34.1 8.9 18 16.4 E 15 22 8 12 1012.2 1010.2 0.0
15/02:00pm 36.9 34.5 8.7 18 16.3 N 11 28 6 15 1012.5 1010.5 0.0
15/01:30pm 37.0 34.3 8.8 18 16.3 NNE 13 24 7 13 1012.8 1010.8 0.0
15/01:00pm 37.4 33.8 8.2 17 16.8 NNE 17 28 9 15 1013.3 1011.2 0.0
15/12:30pm 38.0 34.1 8.7 17 17.0 NNE 19 28 10 15 1013.6 1011.6 0.0
15/12:00pm 37.5 33.5 9.2 18 16.5 NNE 20 32 11 17 1013.9 1011.9 0.0
15/11:30am 37.6 34.3 10.8 20 16.0 NE 19 28 10 15 1014.1 1012.1 0.0
15/11:00am 36.9 33.1 11.0 21 15.5 NNE 22 33 12 18 1014.5 1012.5 0.0
15/10:30am 36.0 31.4 9.5 20 15.5 NE 24 37 13 20 1014.7 1012.7 0.0
15/10:00am 35.1 30.6 10.2 22 14.6 NE 24 35 13 19 1014.9 1012.9 0.0
15/09:30am 34.5 30.8 11.6 25 13.7 NE 22 35 12 19 1015.0 1013.0 0.0
15/09:00am 33.3 29.9 11.2 26 13.1 NE 20 32 11 17 1015.1 1013.1 0.0
15/08:30am 31.8 28.4 10.5 27 12.4 ENE 19 26 10 14 1015.1 1013.1 0.0
15/08:00am 29.8 26.8 11.8 33 10.6 E 19 26 10 14 1014.9 1012.9 0.0
15/07:30am 28.3 26.8 14.2 42 8.6 ESE 15 24 8 13 1014.6 1012.6 0.0
15/07:00am 25.5 25.2 15.5 54 6.1 SE 11 17 6 9 1014.1 1012.1 0.0
15/06:30am 23.1 23.3 15.7 63 4.5 SSE 9 11 5 6 1013.6 1011.6 0.0
15/06:00am 22.2 22.4 14.8 63 4.4 SSE 7 11 4 6 1013.5 1011.4 0.0
15/05:30am 22.9 23.0 14.5 59 5.0 S 7 9 4 5 1013.2 1011.1 0.0
15/05:00am 23.5 23.3 14.8 58 5.2 SSW 9 11 5 6 1012.5 1010.5 0.0
15/04:30am 24.2 23.7 14.9 56 5.6 S 11 15 6 8 1012.1 1010.1 0.0
15/04:00am 24.8 24.3 14.9 54 6.0 S 11 13 6 7 1011.8 1009.8 0.0
15/03:30am 25.1 24.8 15.4 55 5.9 S 11 15 6 8 1011.6 1009.6 0.0
15/03:00am 25.6 25.5 15.9 55 6.0 SSW 11 13 6 7 1011.4 1009.4 0.0
15/02:30am 25.9 26.8 16.5 56 5.9 SW 7 7 4 4 1011.6 1009.6 0.0
15/02:00am 25.8 26.4 15.8 54 6.2 S 7 11 4 6 1011.7 1009.7 0.0
15/01:30am 26.2 26.6 16.2 54 6.2 S 9 11 5 6 1012.1 1010.1 0.0
15/01:00am 26.0 26.2 15.7 53 6.4 S 9 11 5 6 1012.3 1010.3 0.0
15/12:30am 26.3 26.5 15.7 52 6.5 S 9 11 5 6 1012.4 1010.4 0.0
15/12:00am 27.3 27.5 15.7 49 7.2 SSW 9 11 5 6 1012.4 1010.4 0.0
 
Date/Time
EST
Temp
°C
App
Temp
°C
Dew
Point
°C
Rel
Hum
%
Delta-T
°C
Wind Press
QNH
hPa
Press
MSL
hPa
Rain since
9am
mm
Dir  Spd
km/h
Gust
km/h
Spd
kts
Gust
kts
14/11:30pm 27.9 27.5 15.2 46 7.8 SSW 11 13 6 7 1012.4 1010.4 0.0
14/11:00pm 28.4 28.3 15.0 44 8.2 S 9 11 5 6 1012.3 1010.3 0.0
14/10:30pm 29.2 29.1 15.0 42 8.8 S 9 11 5 6 1012.5 1010.5 0.0
14/10:00pm 29.7 29.1 14.7 40 9.2 S 11 13 6 7 1012.2 1010.2 0.0
14/09:30pm 30.2 29.9 14.3 38 9.7 S 9 11 5 6 1012.2 1010.2 0.0
14/09:00pm 31.1 30.0 14.3 36 10.3 SSE 13 17 7 9 1012.1 1010.1 0.0
14/08:30pm 31.5 30.0 14.2 35 10.6 SSE 15 20 8 11 1011.7 1009.7 0.0
14/08:00pm 32.0 29.7 14.2 34 11.0 SSE 19 24 10 13 1011.6 1009.6 0.0
14/07:30pm 32.8 30.6 14.4 33 11.4 SE 19 28 10 15 1011.3 1009.3 0.0
14/07:00pm 33.4 31.0 14.5 32 11.8 SSE 20 30 11 16 1010.5 1008.5 0.0
14/06:30pm 34.6 34.7 14.5 30 12.5 SSW 7 13 4 7 1010.4 1008.4 0.0
14/06:00pm 35.1 35.2 14.4 29 12.9 WSW 7 11 4 6 1010.3 1008.2 0.0
14/05:30pm 33.2 33.0 14.8 33 11.5 WNW 9 19 5 10 1010.1 1008.0 0.0
14/05:00pm 34.3 31.5 11.4 25 13.7 WSW 17 26 9 14 1010.2 1008.1 0.0
14/04:30pm 33.0 29.1 12.1 28 12.5 SW 24 43 13 23 1010.7 1008.7 0.0
14/04:29pm 33.0 29.5 12.1 28 12.5 SW 22 43 12 23 1010.7 1008.7 0.0
14/04:00pm 35.7 34.4 13.8 27 13.6 SE 13 22 7 12 1010.4 1008.4 0.0
14/03:30pm 36.3 35.2 14.3 27 13.8 SE 13 24 7 13 1010.4 1008.4 0.0
14/03:00pm 35.5 34.2 14.7 28 13.1 SSE 15 26 8 14 1010.7 1008.7 0.0
14/02:30pm 35.3 34.3 14.6 29 13.0 SE 13 28 7 15 1010.9 1008.9 0.0
14/02:00pm 37.1 36.8 15.5 27 13.8 SW 11 20 6 11 1011.3 1009.3 0.0
14/01:30pm 34.8 33.5 14.7 30 12.6 WSW 15 24 8 13 1011.6 1009.6 0.0
14/01:00pm 34.9 35.1 15.7 31 12.2 W 9 19 5 10 1011.9 1009.9 0.0
14/12:30pm 34.6 34.5 15.0 31 12.3 SSW 9 17 5 9 1012.3 1010.3 0.0
14/12:00pm 34.7 34.8 15.6 32 12.1 WSW 9 17 5 9 1012.5 1010.5 0.0
14/11:30am 33.6 34.3 15.6 34 11.4 N 6 11 3 6 1012.7 1010.7 0.0
14/11:00am 32.7 33.4 16.1 37 10.5 SSW 7 13 4 7 1013.2 1011.1 0.0
14/10:30am 32.1 32.2 15.6 37 10.4 NW 9 17 5 9 1013.4 1011.3 0.0
14/10:00am 31.5 31.0 15.0 36 10.3 NNW 11 17 6 9 1013.4 1011.3 0.0
14/09:30am 31.1 30.8 15.5 39 9.8 N 11 17 6 9 1013.4 1011.3 0.0
14/09:00am 29.9 29.2 17.4 47 8.0 N 17 22 9 12 1013.4 1011.3 -
14/08:30am 28.0 29.5 19.0 58 5.9 N 9 13 5 7 1013.6 1011.6 -
14/08:00am 26.0 26.9 19.2 66 4.4 NW 13 17 7 9 1013.6 1011.6 -
14/07:30am 25.5 26.7 19.9 71 3.7 NNW 13 17 7 9 1013.1 1011.0 -
14/07:00am 23.9 26.7 19.6 77 2.8 N 4 9 2 5 1012.9 1010.9 -
14/06:30am 23.1 25.2 19.3 79 2.5 NNW 7 9 4 5 1012.6 1010.6 -
14/06:00am 23.0 23.8 19.0 78 2.6 NW 13 17 7 9 1012.3 1010.3 -
14/05:30am 23.1 24.2 18.8 77 2.8 N 11 15 6 8 1011.6 1009.6 -
14/05:00am 22.4 23.9 18.8 80 2.3 NNE 9 13 5 7 1011.2 1009.2 -
14/04:30am 22.2 23.0 19.0 82 2.0 N 13 17 7 9 1010.8 1008.8 -
14/04:00am 22.0 23.6 19.2 84 1.8 N 9 11 5 6 1010.7 1008.7 -
14/03:30am 21.9 23.5 19.1 84 1.8 NNE 9 11 5 6 1010.7 1008.7 -
14/03:00am 22.0 23.7 19.4 85 1.7 NNE 9 13 5 7 1010.9 1008.9 2.0
14/02:30am 21.8 23.4 19.2 85 1.7 NE 9 11 5 6 1010.9 1008.9 -
14/02:00am 21.9 23.1 19.1 84 1.8 ENE 11 15 6 8 1010.7 1008.7 -
14/01:30am 21.9 23.2 19.3 85 1.7 ENE 11 15 6 8 1010.8 1008.8 -
14/01:00am 21.9 22.1 19.3 85 1.7 ENE 17 20 9 11 1011.2 1009.2 -
14/12:30am 21.9 22.4 19.3 85 1.7 NE 15 22 8 12 1011.7 1009.7 -
14/12:00am 21.8 20.3 19.4 86 1.5 NE 26 35 14 19 1012.2 1010.2 -
 
Date/Time
EST
Temp
°C
App
Temp
°C
Dew
Point
°C
Rel
Hum
%
Delta-T
°C
Wind Press
QNH
hPa
Press
MSL
hPa
Rain since
9am
mm
Dir  Spd
km/h
Gust
km/h
Spd
kts
Gust
kts
13/11:30pm 21.8 19.8 19.2 85 1.7 ENE 28 41 15 22 1012.5 1010.5 -
13/11:00pm 22.0 21.5 19.2 84 1.8 NE 20 35 11 19 1013.7 1011.7 -
13/10:30pm 22.5 22.4 19.5 83 1.9 E 19 26 10 14 1014.0 1012.0 -
13/10:00pm 22.3 21.7 19.7 85 1.7 E 22 32 12 17 1013.5 1011.4 -
13/09:30pm 22.2 21.2 19.7 86 1.6 E 24 35 13 19 1013.2 1011.1 -
13/09:00pm 22.5 21.8 20.2 87 1.5 ESE 24 32 13 17 1012.8 1010.8 -
13/08:00pm 22.3 20.0 20.2 88 1.4 SSE 32 48 17 26 1011.6 1009.6 2.2

Other Formats:

Comma delimited format used in spreadsheet applications
http://www.bom.gov.au/fwo/IDQ60801/IDQ60801.94336.axf

JavaScript Object Notation format (JSON) in row-major order
http://www.bom.gov.au/fwo/IDQ60801/IDQ60801.94336.json